sensor_id;sensor_type;location;lat;lon;timestamp;temperature;humidity
38941;DHT22;43236;47.208;7.518;2023-12-04T00:00:50;1.90;81.30
38941;DHT22;43236;47.208;7.518;2023-12-04T00:03:37;1.90;81.40
38941;DHT22;43236;47.208;7.518;2023-12-04T00:06:24;1.90;81.60
38941;DHT22;43236;47.208;7.518;2023-12-04T00:09:12;1.90;81.30
38941;DHT22;43236;47.208;7.518;2023-12-04T00:11:59;1.90;81.60
38941;DHT22;43236;47.208;7.518;2023-12-04T00:14:47;2.00;81.40
38941;DHT22;43236;47.208;7.518;2023-12-04T00:17:35;2.00;81.70
38941;DHT22;43236;47.208;7.518;2023-12-04T00:20:25;2.00;81.80
38941;DHT22;43236;47.208;7.518;2023-12-04T00:23:12;1.90;81.90
38941;DHT22;43236;47.208;7.518;2023-12-04T00:25:59;2.00;82.50
38941;DHT22;43236;47.208;7.518;2023-12-04T00:28:48;2.00;82.20
38941;DHT22;43236;47.208;7.518;2023-12-04T00:31:36;2.10;82.30
38941;DHT22;43236;47.208;7.518;2023-12-04T00:34:23;2.10;82.40
38941;DHT22;43236;47.208;7.518;2023-12-04T00:37:11;2.10;82.30
38941;DHT22;43236;47.208;7.518;2023-12-04T00:39:58;2.10;82.10
38941;DHT22;43236;47.208;7.518;2023-12-04T00:42:45;2.20;81.80
38941;DHT22;43236;47.208;7.518;2023-12-04T00:45:32;2.20;81.70
38941;DHT22;43236;47.208;7.518;2023-12-04T00:48:20;2.20;81.90
38941;DHT22;43236;47.208;7.518;2023-12-04T00:51:08;2.20;82.30
38941;DHT22;43236;47.208;7.518;2023-12-04T00:53:55;2.30;82.00
38941;DHT22;43236;47.208;7.518;2023-12-04T00:56:42;2.30;81.80
38941;DHT22;43236;47.208;7.518;2023-12-04T00:59:29;2.30;81.80
38941;DHT22;43236;47.208;7.518;2023-12-04T01:02:16;2.30;81.60
38941;DHT22;43236;47.208;7.518;2023-12-04T01:05:05;2.20;81.70
38941;DHT22;43236;47.208;7.518;2023-12-04T01:07:52;2.20;82.00
38941;DHT22;43236;47.208;7.518;2023-12-04T01:10:39;2.10;82.10
38941;DHT22;43236;47.208;7.518;2023-12-04T01:13:26;2.10;82.30
38941;DHT22;43236;47.208;7.518;2023-12-04T01:16:14;2.10;82.50
38941;DHT22;43236;47.208;7.518;2023-12-04T01:19:01;2.10;82.70
38941;DHT22;43236;47.208;7.518;2023-12-04T01:21:49;2.20;82.70
38941;DHT22;43236;47.208;7.518;2023-12-04T01:24:36;2.10;83.00
38941;DHT22;43236;47.208;7.518;2023-12-04T01:27:24;2.20;83.10
38941;DHT22;43236;47.208;7.518;2023-12-04T01:30:11;2.20;82.30
38941;DHT22;43236;47.208;7.518;2023-12-04T01:32:59;2.20;83.00
38941;DHT22;43236;47.208;7.518;2023-12-04T01:35:46;2.20;81.70
38941;DHT22;43236;47.208;7.518;2023-12-04T01:38:35;2.20;82.10
38941;DHT22;43236;47.208;7.518;2023-12-04T01:41:22;2.20;82.20
38941;DHT22;43236;47.208;7.518;2023-12-04T01:44:10;2.30;82.00
38941;DHT22;43236;47.208;7.518;2023-12-04T01:46:57;2.30;81.70
38941;DHT22;43236;47.208;7.518;2023-12-04T01:49:44;2.30;80.90
38941;DHT22;43236;47.208;7.518;2023-12-04T01:52:31;2.30;81.80
38941;DHT22;43236;47.208;7.518;2023-12-04T01:55:20;2.30;81.70
38941;DHT22;43236;47.208;7.518;2023-12-04T01:58:08;2.30;81.90
38941;DHT22;43236;47.208;7.518;2023-12-04T02:00:56;2.30;81.30
38941;DHT22;43236;47.208;7.518;2023-12-04T02:03:43;2.30;81.10
38941;DHT22;43236;47.208;7.518;2023-12-04T02:06:30;2.30;81.10
38941;DHT22;43236;47.208;7.518;2023-12-04T02:09:17;2.30;81.10
38941;DHT22;43236;47.208;7.518;2023-12-04T02:12:06;2.30;81.00
38941;DHT22;43236;47.208;7.518;2023-12-04T02:14:53;2.30;80.90
38941;DHT22;43236;47.208;7.518;2023-12-04T02:17:41;2.20;80.80
38941;DHT22;43236;47.208;7.518;2023-12-04T02:20:32;2.20;81.00
38941;DHT22;43236;47.208;7.518;2023-12-04T02:23:19;2.20;80.50
38941;DHT22;43236;47.208;7.518;2023-12-04T02:26:14;2.20;80.70
38941;DHT22;43236;47.208;7.518;2023-12-04T02:29:07;2.30;80.60
38941;DHT22;43236;47.208;7.518;2023-12-04T02:31:55;2.20;80.80
38941;DHT22;43236;47.208;7.518;2023-12-04T02:34:44;2.20;80.30
38941;DHT22;43236;47.208;7.518;2023-12-04T02:37:35;2.30;81.00
38941;DHT22;43236;47.208;7.518;2023-12-04T02:40:23;2.30;80.40
38941;DHT22;43236;47.208;7.518;2023-12-04T02:43:11;2.30;80.90
38941;DHT22;43236;47.208;7.518;2023-12-04T02:45:58;2.30;80.60
38941;DHT22;43236;47.208;7.518;2023-12-04T02:48:45;2.30;80.60
38941;DHT22;43236;47.208;7.518;2023-12-04T02:51:32;2.30;81.10
38941;DHT22;43236;47.208;7.518;2023-12-04T02:54:19;2.20;80.60
38941;DHT22;43236;47.208;7.518;2023-12-04T02:57:07;2.20;80.80
38941;DHT22;43236;47.208;7.518;2023-12-04T02:59:55;2.30;81.40
38941;DHT22;43236;47.208;7.518;2023-12-04T03:02:42;2.30;81.10
38941;DHT22;43236;47.208;7.518;2023-12-04T03:05:29;2.30;81.00
38941;DHT22;43236;47.208;7.518;2023-12-04T03:08:16;2.30;81.10
38941;DHT22;43236;47.208;7.518;2023-12-04T03:11:04;2.30;81.50
38941;DHT22;43236;47.208;7.518;2023-12-04T03:13:51;2.40;81.70
38941;DHT22;43236;47.208;7.518;2023-12-04T03:16:39;2.40;81.40
38941;DHT22;43236;47.208;7.518;2023-12-04T03:19:26;2.40;81.50
38941;DHT22;43236;47.208;7.518;2023-12-04T03:22:14;2.40;81.40
38941;DHT22;43236;47.208;7.518;2023-12-04T03:25:01;2.40;81.70
38941;DHT22;43236;47.208;7.518;2023-12-04T03:27:48;2.50;81.70
38941;DHT22;43236;47.208;7.518;2023-12-04T03:30:35;2.50;81.70
38941;DHT22;43236;47.208;7.518;2023-12-04T03:33:23;2.50;81.80
38941;DHT22;43236;47.208;7.518;2023-12-04T03:36:10;2.50;81.40
38941;DHT22;43236;47.208;7.518;2023-12-04T03:38:57;2.50;81.60
38941;DHT22;43236;47.208;7.518;2023-12-04T03:41:45;2.50;81.60
38941;DHT22;43236;47.208;7.518;2023-12-04T03:44:32;2.50;81.90
38941;DHT22;43236;47.208;7.518;2023-12-04T03:47:19;2.50;81.80
38941;DHT22;43236;47.208;7.518;2023-12-04T03:50:08;2.50;81.60
38941;DHT22;43236;47.208;7.518;2023-12-04T03:52:55;2.50;81.80
38941;DHT22;43236;47.208;7.518;2023-12-04T03:55:42;2.40;82.00
38941;DHT22;43236;47.208;7.518;2023-12-04T03:58:29;2.50;82.30
38941;DHT22;43236;47.208;7.518;2023-12-04T04:01:16;2.50;82.50
38941;DHT22;43236;47.208;7.518;2023-12-04T04:04:03;2.60;82.80
38941;DHT22;43236;47.208;7.518;2023-12-04T04:06:52;2.60;82.10
38941;DHT22;43236;47.208;7.518;2023-12-04T04:09:39;2.60;81.80
38941;DHT22;43236;47.208;7.518;2023-12-04T04:12:27;2.50;81.50
38941;DHT22;43236;47.208;7.518;2023-12-04T04:15:14;2.60;81.40
38941;DHT22;43236;47.208;7.518;2023-12-04T04:18:01;2.50;81.20
38941;DHT22;43236;47.208;7.518;2023-12-04T04:20:48;2.40;81.30
38941;DHT22;43236;47.208;7.518;2023-12-04T04:23:37;2.40;81.00
38941;DHT22;43236;47.208;7.518;2023-12-04T04:26:24;2.40;81.00
38941;DHT22;43236;47.208;7.518;2023-12-04T04:29:11;2.40;81.40
38941;DHT22;43236;47.208;7.518;2023-12-04T04:31:58;2.40;81.50
38941;DHT22;43236;47.208;7.518;2023-12-04T04:34:46;2.40;81.40
38941;DHT22;43236;47.208;7.518;2023-12-04T04:37:33;2.40;81.00
38941;DHT22;43236;47.208;7.518;2023-12-04T04:40:23;2.40;81.10
38941;DHT22;43236;47.208;7.518;2023-12-04T04:43:11;2.30;81.00
38941;DHT22;43236;47.208;7.518;2023-12-04T04:45:58;2.30;81.30
38941;DHT22;43236;47.208;7.518;2023-12-04T04:48:45;2.40;81.50
38941;DHT22;43236;47.208;7.518;2023-12-04T04:51:32;2.40;81.20
38941;DHT22;43236;47.208;7.518;2023-12-04T04:54:20;2.50;81.10
38941;DHT22;43236;47.208;7.518;2023-12-04T04:57:08;2.50;81.30
38941;DHT22;43236;47.208;7.518;2023-12-04T04:59:55;2.50;81.30
38941;DHT22;43236;47.208;7.518;2023-12-04T05:02:42;2.50;81.30
38941;DHT22;43236;47.208;7.518;2023-12-04T05:05:29;2.50;81.40
38941;DHT22;43236;47.208;7.518;2023-12-04T05:08:16;2.50;81.20
38941;DHT22;43236;47.208;7.518;2023-12-04T05:11:04;2.40;80.80
38941;DHT22;43236;47.208;7.518;2023-12-04T05:13:52;2.40;81.20
38941;DHT22;43236;47.208;7.518;2023-12-04T05:16:40;2.40;81.00
38941;DHT22;43236;47.208;7.518;2023-12-04T05:19:27;2.50;81.50
38941;DHT22;43236;47.208;7.518;2023-12-04T05:22:14;2.50;81.10
38941;DHT22;43236;47.208;7.518;2023-12-04T05:25:01;2.40;81.20
38941;DHT22;43236;47.208;7.518;2023-12-04T05:27:49;2.50;81.40
38941;DHT22;43236;47.208;7.518;2023-12-04T05:30:37;2.50;81.40
38941;DHT22;43236;47.208;7.518;2023-12-04T05:33:24;2.50;81.50
38941;DHT22;43236;47.208;7.518;2023-12-04T05:36:12;2.50;81.30
38941;DHT22;43236;47.208;7.518;2023-12-04T05:39:06;2.50;81.80
38941;DHT22;43236;47.208;7.518;2023-12-04T05:41:53;2.50;81.70
38941;DHT22;43236;47.208;7.518;2023-12-04T05:44:40;2.50;81.70
38941;DHT22;43236;47.208;7.518;2023-12-04T05:47:28;2.40;81.90
38941;DHT22;43236;47.208;7.518;2023-12-04T05:50:16;2.40;82.60
38941;DHT22;43236;47.208;7.518;2023-12-04T05:53:05;2.40;82.80
38941;DHT22;43236;47.208;7.518;2023-12-04T05:55:52;2.50;82.60
38941;DHT22;43236;47.208;7.518;2023-12-04T05:58:40;2.50;82.30
38941;DHT22;43236;47.208;7.518;2023-12-04T06:01:27;2.50;82.00
38941;DHT22;43236;47.208;7.518;2023-12-04T06:04:15;2.50;82.20
38941;DHT22;43236;47.208;7.518;2023-12-04T06:07:05;2.50;81.90
38941;DHT22;43236;47.208;7.518;2023-12-04T06:09:52;2.60;81.90
38941;DHT22;43236;47.208;7.518;2023-12-04T06:12:39;2.60;81.40
38941;DHT22;43236;47.208;7.518;2023-12-04T06:15:26;2.60;81.40
38941;DHT22;43236;47.208;7.518;2023-12-04T06:18:13;2.60;81.40
38941;DHT22;43236;47.208;7.518;2023-12-04T06:21:02;2.60;81.60
38941;DHT22;43236;47.208;7.518;2023-12-04T06:23:50;2.60;82.10
38941;DHT22;43236;47.208;7.518;2023-12-04T06:26:40;2.60;82.60
38941;DHT22;43236;47.208;7.518;2023-12-04T06:29:28;2.60;82.60
38941;DHT22;43236;47.208;7.518;2023-12-04T06:32:16;2.70;82.40
38941;DHT22;43236;47.208;7.518;2023-12-04T06:35:05;2.70;82.00
38941;DHT22;43236;47.208;7.518;2023-12-04T06:37:54;2.60;82.00
38941;DHT22;43236;47.208;7.518;2023-12-04T06:40:42;2.60;82.60
38941;DHT22;43236;47.208;7.518;2023-12-04T06:43:30;2.70;83.00
38941;DHT22;43236;47.208;7.518;2023-12-04T06:46:19;2.60;82.60
38941;DHT22;43236;47.208;7.518;2023-12-04T06:49:09;2.70;82.90
38941;DHT22;43236;47.208;7.518;2023-12-04T06:51:58;2.60;83.10
38941;DHT22;43236;47.208;7.518;2023-12-04T06:54:47;2.60;83.10
38941;DHT22;43236;47.208;7.518;2023-12-04T06:57:34;2.70;83.40
38941;DHT22;43236;47.208;7.518;2023-12-04T07:00:21;2.70;82.70
38941;DHT22;43236;47.208;7.518;2023-12-04T07:03:08;2.70;82.00
38941;DHT22;43236;47.208;7.518;2023-12-04T07:05:55;2.70;82.10
38941;DHT22;43236;47.208;7.518;2023-12-04T07:08:43;2.70;82.00
38941;DHT22;43236;47.208;7.518;2023-12-04T07:11:31;2.70;82.00
38941;DHT22;43236;47.208;7.518;2023-12-04T07:14:19;2.70;81.60
38941;DHT22;43236;47.208;7.518;2023-12-04T07:17:06;2.70;81.60
38941;DHT22;43236;47.208;7.518;2023-12-04T07:19:53;2.60;81.30
38941;DHT22;43236;47.208;7.518;2023-12-04T07:22:40;2.60;81.50
38941;DHT22;43236;47.208;7.518;2023-12-04T07:25:27;2.60;81.60
38941;DHT22;43236;47.208;7.518;2023-12-04T07:28:16;2.60;81.80
38941;DHT22;43236;47.208;7.518;2023-12-04T07:31:03;2.70;82.10
38941;DHT22;43236;47.208;7.518;2023-12-04T07:33:51;2.70;82.00
38941;DHT22;43236;47.208;7.518;2023-12-04T07:36:38;2.70;82.10
38941;DHT22;43236;47.208;7.518;2023-12-04T07:39:25;2.70;81.90
38941;DHT22;43236;47.208;7.518;2023-12-04T07:42:12;2.80;82.30
38941;DHT22;43236;47.208;7.518;2023-12-04T07:45:00;2.80;82.30
38941;DHT22;43236;47.208;7.518;2023-12-04T07:47:48;2.80;82.10
38941;DHT22;43236;47.208;7.518;2023-12-04T07:50:36;2.80;81.70
38941;DHT22;43236;47.208;7.518;2023-12-04T07:53:23;2.80;82.00
38941;DHT22;43236;47.208;7.518;2023-12-04T07:56:12;2.80;81.70
38941;DHT22;43236;47.208;7.518;2023-12-04T07:58:59;2.80;81.80
38941;DHT22;43236;47.208;7.518;2023-12-04T08:01:47;2.80;81.50
38941;DHT22;43236;47.208;7.518;2023-12-04T08:04:34;2.90;82.30
38941;DHT22;43236;47.208;7.518;2023-12-04T08:07:22;2.90;81.80
38941;DHT22;43236;47.208;7.518;2023-12-04T08:10:09;2.90;81.60
38941;DHT22;43236;47.208;7.518;2023-12-04T08:12:56;2.90;81.80
38941;DHT22;43236;47.208;7.518;2023-12-04T08:15:43;3.00;82.20
38941;DHT22;43236;47.208;7.518;2023-12-04T08:18:31;3.00;82.10
38941;DHT22;43236;47.208;7.518;2023-12-04T08:21:19;3.00;82.80
38941;DHT22;43236;47.208;7.518;2023-12-04T08:24:06;3.00;82.40
38941;DHT22;43236;47.208;7.518;2023-12-04T08:26:53;3.00;82.30
38941;DHT22;43236;47.208;7.518;2023-12-04T08:29:41;3.00;82.10
38941;DHT22;43236;47.208;7.518;2023-12-04T08:32:28;3.00;82.20
38941;DHT22;43236;47.208;7.518;2023-12-04T08:35:17;3.00;82.20
38941;DHT22;43236;47.208;7.518;2023-12-04T08:38:04;3.00;82.80
38941;DHT22;43236;47.208;7.518;2023-12-04T08:40:51;3.10;82.70
38941;DHT22;43236;47.208;7.518;2023-12-04T08:43:38;3.20;82.60
38941;DHT22;43236;47.208;7.518;2023-12-04T08:46:25;3.20;83.00
38941;DHT22;43236;47.208;7.518;2023-12-04T08:49:12;3.20;82.60
38941;DHT22;43236;47.208;7.518;2023-12-04T08:52:01;3.20;82.40
38941;DHT22;43236;47.208;7.518;2023-12-04T08:54:48;3.20;83.00
38941;DHT22;43236;47.208;7.518;2023-12-04T08:57:35;3.20;83.00
38941;DHT22;43236;47.208;7.518;2023-12-04T09:00:22;3.30;83.20
38941;DHT22;43236;47.208;7.518;2023-12-04T09:03:09;3.30;83.00
38941;DHT22;43236;47.208;7.518;2023-12-04T09:05:57;3.30;82.80
38941;DHT22;43236;47.208;7.518;2023-12-04T09:08:45;3.40;83.30
38941;DHT22;43236;47.208;7.518;2023-12-04T09:11:32;3.30;83.20
38941;DHT22;43236;47.208;7.518;2023-12-04T09:14:19;3.40;82.70
38941;DHT22;43236;47.208;7.518;2023-12-04T09:17:07;3.50;82.50
38941;DHT22;43236;47.208;7.518;2023-12-04T09:19:54;3.50;82.50
38941;DHT22;43236;47.208;7.518;2023-12-04T09:22:41;3.50;82.00
38941;DHT22;43236;47.208;7.518;2023-12-04T09:25:29;3.40;82.10
38941;DHT22;43236;47.208;7.518;2023-12-04T09:28:16;3.40;82.60
38941;DHT22;43236;47.208;7.518;2023-12-04T09:31:04;3.50;83.00
38941;DHT22;43236;47.208;7.518;2023-12-04T09:33:51;3.60;83.00
38941;DHT22;43236;47.208;7.518;2023-12-04T09:36:38;3.60;83.10
38941;DHT22;43236;47.208;7.518;2023-12-04T09:39:25;3.60;83.00
38941;DHT22;43236;47.208;7.518;2023-12-04T09:42:14;3.60;82.90
38941;DHT22;43236;47.208;7.518;2023-12-04T09:45:01;3.60;82.90
38941;DHT22;43236;47.208;7.518;2023-12-04T09:47:49;3.70;83.00
38941;DHT22;43236;47.208;7.518;2023-12-04T09:50:37;3.70;82.50
38941;DHT22;43236;47.208;7.518;2023-12-04T09:53:26;3.80;82.60
38941;DHT22;43236;47.208;7.518;2023-12-04T09:56:15;3.90;83.00
38941;DHT22;43236;47.208;7.518;2023-12-04T09:59:06;3.90;82.30
38941;DHT22;43236;47.208;7.518;2023-12-04T10:01:54;4.00;82.60
38941;DHT22;43236;47.208;7.518;2023-12-04T10:04:42;4.00;82.60
38941;DHT22;43236;47.208;7.518;2023-12-04T10:07:29;4.10;82.50
38941;DHT22;43236;47.208;7.518;2023-12-04T10:10:16;4.10;82.70
38941;DHT22;43236;47.208;7.518;2023-12-04T10:13:04;4.10;82.20
38941;DHT22;43236;47.208;7.518;2023-12-04T10:15:52;4.20;82.60
38941;DHT22;43236;47.208;7.518;2023-12-04T10:18:39;4.20;82.40
38941;DHT22;43236;47.208;7.518;2023-12-04T10:21:32;4.20;83.50
38941;DHT22;43236;47.208;7.518;2023-12-04T10:24:28;4.10;81.80
38941;DHT22;43236;47.208;7.518;2023-12-04T10:27:15;4.10;81.80
38941;DHT22;43236;47.208;7.518;2023-12-04T10:30:04;4.10;82.10
38941;DHT22;43236;47.208;7.518;2023-12-04T10:32:57;4.00;82.10
38941;DHT22;43236;47.208;7.518;2023-12-04T10:35:46;4.00;82.00
38941;DHT22;43236;47.208;7.518;2023-12-04T10:38:33;4.00;82.60
38941;DHT22;43236;47.208;7.518;2023-12-04T10:41:20;4.00;82.80
38941;DHT22;43236;47.208;7.518;2023-12-04T10:44:08;4.10;82.90
38941;DHT22;43236;47.208;7.518;2023-12-04T10:46:56;4.00;82.00
38941;DHT22;43236;47.208;7.518;2023-12-04T10:49:46;4.10;83.00
38941;DHT22;43236;47.208;7.518;2023-12-04T10:52:36;4.00;82.20
38941;DHT22;43236;47.208;7.518;2023-12-04T10:55:26;4.10;83.00
38941;DHT22;43236;47.208;7.518;2023-12-04T10:58:15;4.10;82.80
38941;DHT22;43236;47.208;7.518;2023-12-04T11:01:02;4.20;82.80
38941;DHT22;43236;47.208;7.518;2023-12-04T11:03:56;4.20;83.10
38941;DHT22;43236;47.208;7.518;2023-12-04T11:06:49;4.20;82.80
38941;DHT22;43236;47.208;7.518;2023-12-04T11:09:38;4.30;83.10
38941;DHT22;43236;47.208;7.518;2023-12-04T11:12:29;4.30;82.50
38941;DHT22;43236;47.208;7.518;2023-12-04T11:15:22;4.30;82.50
38941;DHT22;43236;47.208;7.518;2023-12-04T11:18:13;4.30;83.10
38941;DHT22;43236;47.208;7.518;2023-12-04T11:21:05;4.30;83.70
38941;DHT22;43236;47.208;7.518;2023-12-04T11:23:55;4.30;83.30
38941;DHT22;43236;47.208;7.518;2023-12-04T11:26:44;4.30;83.50
38941;DHT22;43236;47.208;7.518;2023-12-04T11:29:32;4.40;83.60
38941;DHT22;43236;47.208;7.518;2023-12-04T11:32:19;4.30;83.30
38941;DHT22;43236;47.208;7.518;2023-12-04T11:35:12;4.30;84.00
38941;DHT22;43236;47.208;7.518;2023-12-04T11:38:00;4.30;84.40
38941;DHT22;43236;47.208;7.518;2023-12-04T11:40:49;4.30;83.90
38941;DHT22;43236;47.208;7.518;2023-12-04T11:43:36;4.30;83.90
38941;DHT22;43236;47.208;7.518;2023-12-04T11:46:25;4.30;84.20
38941;DHT22;43236;47.208;7.518;2023-12-04T11:49:26;4.30;84.60
38941;DHT22;43236;47.208;7.518;2023-12-04T11:52:14;4.20;84.80
38941;DHT22;43236;47.208;7.518;2023-12-04T11:55:05;4.20;85.60
38941;DHT22;43236;47.208;7.518;2023-12-04T11:57:55;4.30;85.50
38941;DHT22;43236;47.208;7.518;2023-12-04T12:00:43;4.30;85.60
38941;DHT22;43236;47.208;7.518;2023-12-04T12:03:32;4.30;85.70
38941;DHT22;43236;47.208;7.518;2023-12-04T12:06:20;4.30;85.50
38941;DHT22;43236;47.208;7.518;2023-12-04T12:09:08;4.30;85.50
38941;DHT22;43236;47.208;7.518;2023-12-04T12:12:06;4.20;85.90
38941;DHT22;43236;47.208;7.518;2023-12-04T12:14:55;4.30;86.50
38941;DHT22;43236;47.208;7.518;2023-12-04T12:17:42;4.30;86.70
38941;DHT22;43236;47.208;7.518;2023-12-04T12:20:29;4.40;87.20
38941;DHT22;43236;47.208;7.518;2023-12-04T12:23:16;4.50;87.50
38941;DHT22;43236;47.208;7.518;2023-12-04T12:26:04;4.40;87.00
38941;DHT22;43236;47.208;7.518;2023-12-04T12:28:51;4.40;87.70
38941;DHT22;43236;47.208;7.518;2023-12-04T12:31:39;4.40;86.80
38941;DHT22;43236;47.208;7.518;2023-12-04T12:34:26;4.40;87.50
38941;DHT22;43236;47.208;7.518;2023-12-04T12:37:15;4.40;87.50
38941;DHT22;43236;47.208;7.518;2023-12-04T12:40:04;4.30;87.60
38941;DHT22;43236;47.208;7.518;2023-12-04T12:43:04;4.30;87.90
38941;DHT22;43236;47.208;7.518;2023-12-04T12:45:51;4.30;87.80
38941;DHT22;43236;47.208;7.518;2023-12-04T12:48:42;4.30;89.00
38941;DHT22;43236;47.208;7.518;2023-12-04T12:51:30;4.30;89.20
38941;DHT22;43236;47.208;7.518;2023-12-04T12:54:23;4.40;89.30
38941;DHT22;43236;47.208;7.518;2023-12-04T12:57:11;4.40;89.60
38941;DHT22;43236;47.208;7.518;2023-12-04T12:59:58;4.50;89.30
38941;DHT22;43236;47.208;7.518;2023-12-04T13:02:45;4.50;89.80
38941;DHT22;43236;47.208;7.518;2023-12-04T13:05:33;4.50;89.50
38941;DHT22;43236;47.208;7.518;2023-12-04T13:08:21;4.40;89.10
38941;DHT22;43236;47.208;7.518;2023-12-04T13:11:08;4.40;89.70
38941;DHT22;43236;47.208;7.518;2023-12-04T13:13:55;4.50;90.00
38941;DHT22;43236;47.208;7.518;2023-12-04T13:16:43;4.50;89.90
38941;DHT22;43236;47.208;7.518;2023-12-04T13:19:30;4.40;89.70
38941;DHT22;43236;47.208;7.518;2023-12-04T13:22:21;4.30;89.90
38941;DHT22;43236;47.208;7.518;2023-12-04T13:25:08;4.20;89.70
38941;DHT22;43236;47.208;7.518;2023-12-04T13:27:55;4.20;90.10
38941;DHT22;43236;47.208;7.518;2023-12-04T13:30:43;4.20;90.40
38941;DHT22;43236;47.208;7.518;2023-12-04T13:33:30;4.30;90.50
38941;DHT22;43236;47.208;7.518;2023-12-04T13:36:18;4.40;90.30
38941;DHT22;43236;47.208;7.518;2023-12-04T13:39:06;4.50;90.30
38941;DHT22;43236;47.208;7.518;2023-12-04T13:42:02;4.40;90.20
38941;DHT22;43236;47.208;7.518;2023-12-04T13:45:07;4.50;90.30
38941;DHT22;43236;47.208;7.518;2023-12-04T13:47:55;4.60;90.40
38941;DHT22;43236;47.208;7.518;2023-12-04T13:50:42;4.60;90.20
38941;DHT22;43236;47.208;7.518;2023-12-04T13:53:30;4.60;90.30
38941;DHT22;43236;47.208;7.518;2023-12-04T13:56:18;4.60;90.50
38941;DHT22;43236;47.208;7.518;2023-12-04T13:59:37;4.60;90.50
38941;DHT22;43236;47.208;7.518;2023-12-04T14:02:25;4.70;90.50
38941;DHT22;43236;47.208;7.518;2023-12-04T14:05:12;4.60;90.60
38941;DHT22;43236;47.208;7.518;2023-12-04T14:08:01;4.60;90.30
38941;DHT22;43236;47.208;7.518;2023-12-04T14:10:51;4.50;90.30
38941;DHT22;43236;47.208;7.518;2023-12-04T14:13:39;4.50;90.60
38941;DHT22;43236;47.208;7.518;2023-12-04T14:16:26;4.50;90.60
38941;DHT22;43236;47.208;7.518;2023-12-04T14:19:14;4.50;90.70
38941;DHT22;43236;47.208;7.518;2023-12-04T14:22:03;4.50;90.60
38941;DHT22;43236;47.208;7.518;2023-12-04T14:24:50;4.50;90.60
38941;DHT22;43236;47.208;7.518;2023-12-04T14:27:37;4.40;91.00
38941;DHT22;43236;47.208;7.518;2023-12-04T14:30:27;4.40;91.00
38941;DHT22;43236;47.208;7.518;2023-12-04T14:33:15;4.30;90.90
38941;DHT22;43236;47.208;7.518;2023-12-04T14:36:03;4.30;90.90
38941;DHT22;43236;47.208;7.518;2023-12-04T14:38:50;4.30;91.10
38941;DHT22;43236;47.208;7.518;2023-12-04T14:41:37;4.30;91.00
38941;DHT22;43236;47.208;7.518;2023-12-04T14:44:25;4.40;91.10
38941;DHT22;43236;47.208;7.518;2023-12-04T14:47:13;4.40;91.20
38941;DHT22;43236;47.208;7.518;2023-12-04T14:50:00;4.40;91.00
38941;DHT22;43236;47.208;7.518;2023-12-04T14:52:48;4.40;91.20
38941;DHT22;43236;47.208;7.518;2023-12-04T14:55:36;4.30;90.80
38941;DHT22;43236;47.208;7.518;2023-12-04T14:58:41;4.30;91.00
38941;DHT22;43236;47.208;7.518;2023-12-04T15:01:42;4.30;91.00
38941;DHT22;43236;47.208;7.518;2023-12-04T15:04:50;4.40;91.20
38941;DHT22;43236;47.208;7.518;2023-12-04T15:07:54;4.40;91.40
38941;DHT22;43236;47.208;7.518;2023-12-04T15:11:13;4.30;91.00
38941;DHT22;43236;47.208;7.518;2023-12-04T15:14:32;4.40;91.20
38941;DHT22;43236;47.208;7.518;2023-12-04T15:17:26;4.50;91.20
38941;DHT22;43236;47.208;7.518;2023-12-04T15:20:19;4.50;91.10
38941;DHT22;43236;47.208;7.518;2023-12-04T15:23:18;4.50;91.10
38941;DHT22;43236;47.208;7.518;2023-12-04T15:26:05;4.50;91.10
38941;DHT22;43236;47.208;7.518;2023-12-04T15:28:51;4.60;91.00
38941;DHT22;43236;47.208;7.518;2023-12-04T15:31:38;4.60;91.10
38941;DHT22;43236;47.208;7.518;2023-12-04T15:34:25;4.60;91.00
38941;DHT22;43236;47.208;7.518;2023-12-04T15:37:14;4.60;91.10
38941;DHT22;43236;47.208;7.518;2023-12-04T15:40:00;4.50;91.10
38941;DHT22;43236;47.208;7.518;2023-12-04T15:42:47;4.60;91.10
38941;DHT22;43236;47.208;7.518;2023-12-04T15:45:34;4.50;91.20
38941;DHT22;43236;47.208;7.518;2023-12-04T15:48:21;4.50;91.20
38941;DHT22;43236;47.208;7.518;2023-12-04T15:51:07;4.60;91.20
38941;DHT22;43236;47.208;7.518;2023-12-04T15:53:55;4.60;91.10
38941;DHT22;43236;47.208;7.518;2023-12-04T15:56:42;4.60;91.30
38941;DHT22;43236;47.208;7.518;2023-12-04T15:59:28;4.60;91.00
38941;DHT22;43236;47.208;7.518;2023-12-04T16:02:15;4.50;91.10
38941;DHT22;43236;47.208;7.518;2023-12-04T16:05:02;4.60;91.20
38941;DHT22;43236;47.208;7.518;2023-12-04T16:07:49;4.60;91.30
38941;DHT22;43236;47.208;7.518;2023-12-04T16:10:37;4.60;91.10
38941;DHT22;43236;47.208;7.518;2023-12-04T16:13:24;4.60;91.30
38941;DHT22;43236;47.208;7.518;2023-12-04T16:16:11;4.60;91.40
38941;DHT22;43236;47.208;7.518;2023-12-04T16:18:58;4.60;91.40
38941;DHT22;43236;47.208;7.518;2023-12-04T16:21:45;4.60;91.60
38941;DHT22;43236;47.208;7.518;2023-12-04T16:24:32;4.60;91.30
38941;DHT22;43236;47.208;7.518;2023-12-04T16:27:20;4.60;91.40
38941;DHT22;43236;47.208;7.518;2023-12-04T16:30:07;4.70;91.30
38941;DHT22;43236;47.208;7.518;2023-12-04T16:32:54;4.70;91.40
38941;DHT22;43236;47.208;7.518;2023-12-04T16:35:42;4.70;91.20
38941;DHT22;43236;47.208;7.518;2023-12-04T16:38:28;4.70;91.30
38941;DHT22;43236;47.208;7.518;2023-12-04T16:41:16;4.70;91.30
38941;DHT22;43236;47.208;7.518;2023-12-04T16:44:04;4.70;91.40
38941;DHT22;43236;47.208;7.518;2023-12-04T16:46:52;4.80;91.30
38941;DHT22;43236;47.208;7.518;2023-12-04T16:49:41;4.80;91.20
38941;DHT22;43236;47.208;7.518;2023-12-04T16:52:38;4.80;91.20
38941;DHT22;43236;47.208;7.518;2023-12-04T16:55:25;4.80;91.30
38941;DHT22;43236;47.208;7.518;2023-12-04T16:58:12;4.70;91.40
38941;DHT22;43236;47.208;7.518;2023-12-04T17:01:00;4.70;91.40
38941;DHT22;43236;47.208;7.518;2023-12-04T17:03:47;4.80;91.40
38941;DHT22;43236;47.208;7.518;2023-12-04T17:06:34;4.80;91.40
38941;DHT22;43236;47.208;7.518;2023-12-04T17:09:21;4.80;91.40
38941;DHT22;43236;47.208;7.518;2023-12-04T17:12:08;4.80;91.40
38941;DHT22;43236;47.208;7.518;2023-12-04T17:14:55;4.80;91.30
38941;DHT22;43236;47.208;7.518;2023-12-04T17:17:43;4.80;91.40
38941;DHT22;43236;47.208;7.518;2023-12-04T17:20:30;4.80;91.40
38941;DHT22;43236;47.208;7.518;2023-12-04T17:23:17;4.80;91.40
38941;DHT22;43236;47.208;7.518;2023-12-04T17:26:04;4.80;91.40
38941;DHT22;43236;47.208;7.518;2023-12-04T17:28:51;4.90;91.50
38941;DHT22;43236;47.208;7.518;2023-12-04T17:31:38;4.90;91.50
38941;DHT22;43236;47.208;7.518;2023-12-04T17:34:29;4.90;91.30
38941;DHT22;43236;47.208;7.518;2023-12-04T17:37:16;4.90;91.50
38941;DHT22;43236;47.208;7.518;2023-12-04T17:40:04;4.90;91.50
38941;DHT22;43236;47.208;7.518;2023-12-04T17:42:51;4.90;91.50
38941;DHT22;43236;47.208;7.518;2023-12-04T17:45:38;4.90;91.50
38941;DHT22;43236;47.208;7.518;2023-12-04T17:48:25;4.90;91.60
38941;DHT22;43236;47.208;7.518;2023-12-04T17:51:20;4.90;91.60
38941;DHT22;43236;47.208;7.518;2023-12-04T17:54:07;4.90;91.60
38941;DHT22;43236;47.208;7.518;2023-12-04T17:56:53;5.00;91.50
38941;DHT22;43236;47.208;7.518;2023-12-04T17:59:41;4.90;91.40